sensor_id;sensor_type;location;lat;lon;timestamp;P1;durP1;ratioP1;P2;durP2;ratioP2
36443;SDS011;24692;45.642;13.806;2023-04-19T00:01:21;2.30;;;1.93;;
36443;SDS011;24692;45.642;13.806;2023-04-19T00:03:48;2.23;;;1.57;;
36443;SDS011;24692;45.642;13.806;2023-04-19T00:06:14;2.07;;;1.87;;
36443;SDS011;24692;45.642;13.806;2023-04-19T00:08:41;2.30;;;2.10;;
36443;SDS011;24692;45.642;13.806;2023-04-19T00:11:07;1.60;;;1.50;;
36443;SDS011;24692;45.642;13.806;2023-04-19T00:13:33;2.37;;;2.17;;
36443;SDS011;24692;45.642;13.806;2023-04-19T00:15:59;1.80;;;1.70;;
36443;SDS011;24692;45.642;13.806;2023-04-19T00:18:26;2.60;;;1.87;;
36443;SDS011;24692;45.642;13.806;2023-04-19T00:20:51;2.37;;;1.77;;
36443;SDS011;24692;45.642;13.806;2023-04-19T00:23:17;2.37;;;1.90;;
36443;SDS011;24692;45.642;13.806;2023-04-19T00:25:44;2.27;;;1.90;;
36443;SDS011;24692;45.642;13.806;2023-04-19T00:28:10;2.10;;;1.90;;
36443;SDS011;24692;45.642;13.806;2023-04-19T00:30:36;2.30;;;1.97;;
36443;SDS011;24692;45.642;13.806;2023-04-19T00:33:01;3.80;;;1.93;;
36443;SDS011;24692;45.642;13.806;2023-04-19T00:35:27;2.47;;;1.67;;
36443;SDS011;24692;45.642;13.806;2023-04-19T00:37:53;1.80;;;1.70;;
36443;SDS011;24692;45.642;13.806;2023-04-19T00:40:18;1.70;;;1.60;;
36443;SDS011;24692;45.642;13.806;2023-04-19T00:42:44;2.87;;;2.10;;
36443;SDS011;24692;45.642;13.806;2023-04-19T00:45:10;2.10;;;1.90;;
36443;SDS011;24692;45.642;13.806;2023-04-19T00:47:36;1.80;;;1.70;;
36443;SDS011;24692;45.642;13.806;2023-04-19T00:50:02;2.07;;;1.63;;
36443;SDS011;24692;45.642;13.806;2023-04-19T00:52:29;2.80;;;1.93;;
36443;SDS011;24692;45.642;13.806;2023-04-19T00:54:57;2.97;;;1.90;;
36443;SDS011;24692;45.642;13.806;2023-04-19T00:57:23;2.00;;;1.80;;
36443;SDS011;24692;45.642;13.806;2023-04-19T00:59:49;1.70;;;1.60;;
36443;SDS011;24692;45.642;13.806;2023-04-19T01:02:15;1.70;;;1.60;;
36443;SDS011;24692;45.642;13.806;2023-04-19T01:04:41;1.80;;;1.70;;
36443;SDS011;24692;45.642;13.806;2023-04-19T01:07:08;1.60;;;1.50;;
36443;SDS011;24692;45.642;13.806;2023-04-19T01:09:33;2.37;;;1.90;;
36443;SDS011;24692;45.642;13.806;2023-04-19T01:12:00;2.00;;;1.70;;
36443;SDS011;24692;45.642;13.806;2023-04-19T01:14:27;1.97;;;1.77;;
36443;SDS011;24692;45.642;13.806;2023-04-19T01:16:52;2.00;;;1.77;;
36443;SDS011;24692;45.642;13.806;2023-04-19T01:19:18;1.60;;;1.50;;
36443;SDS011;24692;45.642;13.806;2023-04-19T01:21:45;1.90;;;1.80;;
36443;SDS011;24692;45.642;13.806;2023-04-19T01:24:11;1.73;;;1.63;;
36443;SDS011;24692;45.642;13.806;2023-04-19T01:26:36;1.90;;;1.70;;
36443;SDS011;24692;45.642;13.806;2023-04-19T01:29:02;2.70;;;1.90;;
36443;SDS011;24692;45.642;13.806;2023-04-19T01:31:28;1.67;;;1.57;;
36443;SDS011;24692;45.642;13.806;2023-04-19T01:33:53;1.60;;;1.50;;
36443;SDS011;24692;45.642;13.806;2023-04-19T01:36:19;2.70;;;1.83;;
36443;SDS011;24692;45.642;13.806;2023-04-19T01:38:44;4.47;;;1.70;;
36443;SDS011;24692;45.642;13.806;2023-04-19T01:41:11;1.73;;;1.60;;
36443;SDS011;24692;45.642;13.806;2023-04-19T01:43:37;1.67;;;1.57;;
36443;SDS011;24692;45.642;13.806;2023-04-19T01:46:03;1.60;;;1.50;;
36443;SDS011;24692;45.642;13.806;2023-04-19T01:48:29;2.90;;;1.60;;
36443;SDS011;24692;45.642;13.806;2023-04-19T01:50:54;1.63;;;1.53;;
36443;SDS011;24692;45.642;13.806;2023-04-19T01:53:20;2.60;;;1.90;;
36443;SDS011;24692;45.642;13.806;2023-04-19T01:55:46;2.87;;;2.00;;
36443;SDS011;24692;45.642;13.806;2023-04-19T01:58:11;1.70;;;1.60;;
36443;SDS011;24692;45.642;13.806;2023-04-19T02:00:37;1.70;;;1.60;;
36443;SDS011;24692;45.642;13.806;2023-04-19T02:03:03;1.90;;;1.60;;
36443;SDS011;24692;45.642;13.806;2023-04-19T02:05:28;1.80;;;1.70;;
36443;SDS011;24692;45.642;13.806;2023-04-19T02:07:54;2.20;;;2.00;;
36443;SDS011;24692;45.642;13.806;2023-04-19T02:10:19;1.73;;;1.63;;
36443;SDS011;24692;45.642;13.806;2023-04-19T02:12:45;2.37;;;2.00;;
36443;SDS011;24692;45.642;13.806;2023-04-19T02:15:11;1.70;;;1.60;;
36443;SDS011;24692;45.642;13.806;2023-04-19T02:17:36;1.77;;;1.67;;
36443;SDS011;24692;45.642;13.806;2023-04-19T02:20:03;1.80;;;1.70;;
36443;SDS011;24692;45.642;13.806;2023-04-19T02:22:29;1.90;;;1.80;;
36443;SDS011;24692;45.642;13.806;2023-04-19T02:24:55;2.00;;;1.63;;
36443;SDS011;24692;45.642;13.806;2023-04-19T02:27:21;1.93;;;1.80;;
36443;SDS011;24692;45.642;13.806;2023-04-19T02:29:46;2.80;;;1.90;;
36443;SDS011;24692;45.642;13.806;2023-04-19T02:32:12;2.03;;;1.90;;
36443;SDS011;24692;45.642;13.806;2023-04-19T02:34:38;2.33;;;1.70;;
36443;SDS011;24692;45.642;13.806;2023-04-19T02:37:04;2.00;;;1.90;;
36443;SDS011;24692;45.642;13.806;2023-04-19T02:39:29;2.87;;;2.30;;
36443;SDS011;24692;45.642;13.806;2023-04-19T02:41:55;2.60;;;1.63;;
36443;SDS011;24692;45.642;13.806;2023-04-19T02:44:21;2.33;;;2.00;;
36443;SDS011;24692;45.642;13.806;2023-04-19T02:46:47;2.40;;;1.70;;
36443;SDS011;24692;45.642;13.806;2023-04-19T02:49:16;2.77;;;1.90;;
36443;SDS011;24692;45.642;13.806;2023-04-19T02:51:43;2.20;;;2.00;;
36443;SDS011;24692;45.642;13.806;2023-04-19T02:54:10;5.13;;;2.00;;
36443;SDS011;24692;45.642;13.806;2023-04-19T02:56:36;2.57;;;1.83;;
36443;SDS011;24692;45.642;13.806;2023-04-19T02:59:02;2.70;;;2.07;;
36443;SDS011;24692;45.642;13.806;2023-04-19T03:01:28;2.47;;;1.80;;
36443;SDS011;24692;45.642;13.806;2023-04-19T03:03:54;1.90;;;1.80;;
36443;SDS011;24692;45.642;13.806;2023-04-19T03:06:20;1.90;;;1.70;;
36443;SDS011;24692;45.642;13.806;2023-04-19T03:08:46;2.93;;;1.90;;
36443;SDS011;24692;45.642;13.806;2023-04-19T03:11:13;2.07;;;1.90;;
36443;SDS011;24692;45.642;13.806;2023-04-19T03:13:40;2.00;;;1.90;;
36443;SDS011;24692;45.642;13.806;2023-04-19T03:16:06;2.37;;;2.10;;
36443;SDS011;24692;45.642;13.806;2023-04-19T03:18:32;2.20;;;2.00;;
36443;SDS011;24692;45.642;13.806;2023-04-19T03:20:58;2.07;;;1.80;;
36443;SDS011;24692;45.642;13.806;2023-04-19T03:23:27;2.93;;;2.40;;
36443;SDS011;24692;45.642;13.806;2023-04-19T03:25:53;2.30;;;2.00;;
36443;SDS011;24692;45.642;13.806;2023-04-19T03:28:18;2.57;;;2.10;;
36443;SDS011;24692;45.642;13.806;2023-04-19T03:30:44;2.13;;;1.93;;
36443;SDS011;24692;45.642;13.806;2023-04-19T03:33:10;1.77;;;1.67;;
36443;SDS011;24692;45.642;13.806;2023-04-19T03:35:35;2.10;;;1.90;;
36443;SDS011;24692;45.642;13.806;2023-04-19T03:38:01;2.03;;;1.77;;
36443;SDS011;24692;45.642;13.806;2023-04-19T03:40:27;2.13;;;1.87;;
36443;SDS011;24692;45.642;13.806;2023-04-19T03:42:54;2.00;;;1.70;;
36443;SDS011;24692;45.642;13.806;2023-04-19T03:45:19;2.13;;;1.80;;
36443;SDS011;24692;45.642;13.806;2023-04-19T03:47:46;1.73;;;1.63;;
36443;SDS011;24692;45.642;13.806;2023-04-19T03:50:12;2.50;;;1.97;;
36443;SDS011;24692;45.642;13.806;2023-04-19T03:52:37;2.57;;;1.80;;
36443;SDS011;24692;45.642;13.806;2023-04-19T03:55:03;1.70;;;1.60;;
36443;SDS011;24692;45.642;13.806;2023-04-19T03:57:30;2.07;;;1.87;;
36443;SDS011;24692;45.642;13.806;2023-04-19T03:59:55;1.70;;;1.60;;
36443;SDS011;24692;45.642;13.806;2023-04-19T04:02:21;1.80;;;1.70;;
36443;SDS011;24692;45.642;13.806;2023-04-19T04:04:51;2.40;;;2.03;;
36443;SDS011;24692;45.642;13.806;2023-04-19T04:07:20;1.80;;;1.60;;
36443;SDS011;24692;45.642;13.806;2023-04-19T04:09:47;1.90;;;1.70;;
36443;SDS011;24692;45.642;13.806;2023-04-19T04:12:13;1.70;;;1.60;;
36443;SDS011;24692;45.642;13.806;2023-04-19T04:14:38;2.10;;;1.77;;
36443;SDS011;24692;45.642;13.806;2023-04-19T04:17:04;2.63;;;1.90;;
36443;SDS011;24692;45.642;13.806;2023-04-19T04:19:30;2.07;;;1.73;;
36443;SDS011;24692;45.642;13.806;2023-04-19T04:21:55;2.20;;;1.73;;
36443;SDS011;24692;45.642;13.806;2023-04-19T04:24:21;2.13;;;1.93;;
36443;SDS011;24692;45.642;13.806;2023-04-19T04:26:47;2.60;;;2.20;;
36443;SDS011;24692;45.642;13.806;2023-04-19T04:29:14;1.80;;;1.70;;
36443;SDS011;24692;45.642;13.806;2023-04-19T04:31:40;2.63;;;1.97;;
36443;SDS011;24692;45.642;13.806;2023-04-19T04:34:06;1.80;;;1.70;;
36443;SDS011;24692;45.642;13.806;2023-04-19T04:36:33;2.20;;;1.90;;
36443;SDS011;24692;45.642;13.806;2023-04-19T04:39:00;2.23;;;2.00;;
36443;SDS011;24692;45.642;13.806;2023-04-19T04:41:26;3.37;;;1.83;;
36443;SDS011;24692;45.642;13.806;2023-04-19T04:43:55;2.27;;;1.90;;
36443;SDS011;24692;45.642;13.806;2023-04-19T04:46:22;4.27;;;2.40;;
36443;SDS011;24692;45.642;13.806;2023-04-19T04:48:48;1.90;;;1.80;;
36443;SDS011;24692;45.642;13.806;2023-04-19T04:51:14;3.70;;;2.13;;
36443;SDS011;24692;45.642;13.806;2023-04-19T04:53:40;2.23;;;2.03;;
36443;SDS011;24692;45.642;13.806;2023-04-19T04:56:06;1.90;;;1.70;;
36443;SDS011;24692;45.642;13.806;2023-04-19T04:58:32;3.47;;;1.90;;
36443;SDS011;24692;45.642;13.806;2023-04-19T05:00:57;2.23;;;2.03;;
36443;SDS011;24692;45.642;13.806;2023-04-19T05:03:24;2.77;;;2.00;;
36443;SDS011;24692;45.642;13.806;2023-04-19T05:05:50;2.07;;;1.87;;
36443;SDS011;24692;45.642;13.806;2023-04-19T05:08:16;2.27;;;1.90;;
36443;SDS011;24692;45.642;13.806;2023-04-19T05:10:42;2.13;;;1.90;;
36443;SDS011;24692;45.642;13.806;2023-04-19T05:13:07;1.97;;;1.77;;
36443;SDS011;24692;45.642;13.806;2023-04-19T05:15:33;3.17;;;2.10;;
36443;SDS011;24692;45.642;13.806;2023-04-19T05:17:58;2.53;;;1.90;;
36443;SDS011;24692;45.642;13.806;2023-04-19T05:20:24;1.90;;;1.80;;
36443;SDS011;24692;45.642;13.806;2023-04-19T05:22:55;2.27;;;2.07;;
36443;SDS011;24692;45.642;13.806;2023-04-19T05:25:22;2.77;;;1.90;;
36443;SDS011;24692;45.642;13.806;2023-04-19T05:27:47;1.90;;;1.80;;
36443;SDS011;24692;45.642;13.806;2023-04-19T05:30:13;2.90;;;1.77;;
36443;SDS011;24692;45.642;13.806;2023-04-19T05:32:39;3.00;;;2.00;;
36443;SDS011;24692;45.642;13.806;2023-04-19T05:35:05;2.13;;;1.93;;
36443;SDS011;24692;45.642;13.806;2023-04-19T05:37:31;2.17;;;1.97;;
36443;SDS011;24692;45.642;13.806;2023-04-19T05:39:56;3.33;;;1.80;;
36443;SDS011;24692;45.642;13.806;2023-04-19T05:42:22;2.10;;;1.80;;
36443;SDS011;24692;45.642;13.806;2023-04-19T05:44:48;3.77;;;2.20;;
36443;SDS011;24692;45.642;13.806;2023-04-19T05:47:13;3.97;;;1.90;;
36443;SDS011;24692;45.642;13.806;2023-04-19T05:49:39;2.17;;;1.97;;
36443;SDS011;24692;45.642;13.806;2023-04-19T05:52:05;2.73;;;2.07;;
36443;SDS011;24692;45.642;13.806;2023-04-19T05:54:31;2.63;;;1.80;;
36443;SDS011;24692;45.642;13.806;2023-04-19T05:56:59;2.10;;;1.90;;
36443;SDS011;24692;45.642;13.806;2023-04-19T05:59:28;2.50;;;1.90;;
36443;SDS011;24692;45.642;13.806;2023-04-19T06:01:54;3.20;;;2.43;;
36443;SDS011;24692;45.642;13.806;2023-04-19T06:04:22;2.30;;;2.10;;
36443;SDS011;24692;45.642;13.806;2023-04-19T06:06:48;2.33;;;1.80;;
36443;SDS011;24692;45.642;13.806;2023-04-19T06:09:14;2.20;;;1.87;;
36443;SDS011;24692;45.642;13.806;2023-04-19T06:11:40;3.90;;;1.90;;
36443;SDS011;24692;45.642;13.806;2023-04-19T06:14:05;8.60;;;2.90;;
36443;SDS011;24692;45.642;13.806;2023-04-19T06:16:31;5.90;;;2.87;;
36443;SDS011;24692;45.642;13.806;2023-04-19T06:18:57;7.07;;;2.97;;
36443;SDS011;24692;45.642;13.806;2023-04-19T06:21:22;7.07;;;2.87;;
36443;SDS011;24692;45.642;13.806;2023-04-19T06:23:48;9.23;;;2.70;;
36443;SDS011;24692;45.642;13.806;2023-04-19T06:26:13;6.93;;;2.60;;
36443;SDS011;24692;45.642;13.806;2023-04-19T06:28:39;8.38;;;3.10;;
36443;SDS011;24692;45.642;13.806;2023-04-19T06:31:05;6.50;;;2.73;;
36443;SDS011;24692;45.642;13.806;2023-04-19T06:33:30;6.30;;;2.43;;
36443;SDS011;24692;45.642;13.806;2023-04-19T06:35:56;13.53;;;3.10;;
36443;SDS011;24692;45.642;13.806;2023-04-19T06:38:22;9.80;;;3.40;;
36443;SDS011;24692;45.642;13.806;2023-04-19T06:40:47;12.18;;;3.05;;
36443;SDS011;24692;45.642;13.806;2023-04-19T06:43:13;7.53;;;3.35;;
36443;SDS011;24692;45.642;13.806;2023-04-19T06:45:39;5.43;;;2.70;;
36443;SDS011;24692;45.642;13.806;2023-04-19T06:48:05;5.03;;;2.40;;
36443;SDS011;24692;45.642;13.806;2023-04-19T06:50:31;8.00;;;2.93;;
36443;SDS011;24692;45.642;13.806;2023-04-19T06:52:56;6.85;;;2.80;;
36443;SDS011;24692;45.642;13.806;2023-04-19T06:55:22;11.27;;;2.97;;
36443;SDS011;24692;45.642;13.806;2023-04-19T06:57:48;7.72;;;2.90;;
36443;SDS011;24692;45.642;13.806;2023-04-19T07:00:13;11.35;;;3.35;;
36443;SDS011;24692;45.642;13.806;2023-04-19T07:02:39;7.05;;;2.30;;
36443;SDS011;24692;45.642;13.806;2023-04-19T07:05:05;10.53;;;2.90;;
36443;SDS011;24692;45.642;13.806;2023-04-19T07:07:32;13.63;;;2.80;;
36443;SDS011;24692;45.642;13.806;2023-04-19T07:09:57;6.67;;;2.83;;
36443;SDS011;24692;45.642;13.806;2023-04-19T07:12:23;9.10;;;2.60;;
36443;SDS011;24692;45.642;13.806;2023-04-19T07:14:48;10.48;;;2.78;;
36443;SDS011;24692;45.642;13.806;2023-04-19T07:17:20;19.58;;;3.53;;
36443;SDS011;24692;45.642;13.806;2023-04-19T07:19:46;2.90;;;2.00;;
36443;SDS011;24692;45.642;13.806;2023-04-19T07:22:13;18.45;;;3.70;;
36443;SDS011;24692;45.642;13.806;2023-04-19T07:24:39;21.43;;;3.83;;
36443;SDS011;24692;45.642;13.806;2023-04-19T07:27:06;51.90;;;5.90;;
36443;SDS011;24692;45.642;13.806;2023-04-19T07:29:34;18.23;;;3.95;;
36443;SDS011;24692;45.642;13.806;2023-04-19T07:32:00;8.95;;;2.83;;
36443;SDS011;24692;45.642;13.806;2023-04-19T07:34:26;21.80;;;3.85;;
36443;SDS011;24692;45.642;13.806;2023-04-19T07:36:52;13.00;;;3.00;;
36443;SDS011;24692;45.642;13.806;2023-04-19T07:39:18;8.10;;;2.47;;
36443;SDS011;24692;45.642;13.806;2023-04-19T07:41:43;4.18;;;2.33;;
36443;SDS011;24692;45.642;13.806;2023-04-19T07:44:09;7.13;;;2.70;;
36443;SDS011;24692;45.642;13.806;2023-04-19T07:46:36;12.93;;;3.28;;
36443;SDS011;24692;45.642;13.806;2023-04-19T07:49:01;18.80;;;3.90;;
36443;SDS011;24692;45.642;13.806;2023-04-19T07:51:27;12.43;;;3.40;;
36443;SDS011;24692;45.642;13.806;2023-04-19T07:53:53;16.60;;;3.73;;
36443;SDS011;24692;45.642;13.806;2023-04-19T07:56:18;10.00;;;3.93;;
36443;SDS011;24692;45.642;13.806;2023-04-19T07:58:46;11.83;;;3.77;;
36443;SDS011;24692;45.642;13.806;2023-04-19T08:01:11;9.77;;;3.97;;
36443;SDS011;24692;45.642;13.806;2023-04-19T08:03:37;7.28;;;3.20;;
36443;SDS011;24692;45.642;13.806;2023-04-19T08:06:03;9.45;;;3.97;;
36443;SDS011;24692;45.642;13.806;2023-04-19T08:08:31;11.63;;;3.47;;
36443;SDS011;24692;45.642;13.806;2023-04-19T08:10:56;12.93;;;3.97;;
36443;SDS011;24692;45.642;13.806;2023-04-19T08:13:22;14.57;;;4.23;;
36443;SDS011;24692;45.642;13.806;2023-04-19T08:15:48;9.98;;;3.85;;
36443;SDS011;24692;45.642;13.806;2023-04-19T08:18:13;9.93;;;3.78;;
36443;SDS011;24692;45.642;13.806;2023-04-19T08:20:39;13.55;;;3.47;;
36443;SDS011;24692;45.642;13.806;2023-04-19T08:23:09;9.70;;;3.55;;
36443;SDS011;24692;45.642;13.806;2023-04-19T08:25:35;13.32;;;3.78;;
36443;SDS011;24692;45.642;13.806;2023-04-19T08:28:01;9.07;;;3.97;;
36443;SDS011;24692;45.642;13.806;2023-04-19T08:30:26;9.30;;;3.83;;
36443;SDS011;24692;45.642;13.806;2023-04-19T08:32:52;6.05;;;2.95;;
36443;SDS011;24692;45.642;13.806;2023-04-19T08:35:19;4.38;;;3.25;;
36443;SDS011;24692;45.642;13.806;2023-04-19T08:37:45;5.38;;;2.97;;
36443;SDS011;24692;45.642;13.806;2023-04-19T08:40:12;2.90;;;2.42;;
36443;SDS011;24692;45.642;13.806;2023-04-19T08:42:38;6.82;;;2.75;;
36443;SDS011;24692;45.642;13.806;2023-04-19T08:45:04;5.63;;;2.80;;
36443;SDS011;24692;45.642;13.806;2023-04-19T08:47:32;3.53;;;2.70;;
36443;SDS011;24692;45.642;13.806;2023-04-19T08:50:07;4.15;;;2.42;;
36443;SDS011;24692;45.642;13.806;2023-04-19T08:52:34;3.70;;;2.33;;
36443;SDS011;24692;45.642;13.806;2023-04-19T08:55:05;6.65;;;2.85;;
36443;SDS011;24692;45.642;13.806;2023-04-19T08:57:32;2.60;;;2.30;;
36443;SDS011;24692;45.642;13.806;2023-04-19T08:59:58;6.18;;;2.60;;
36443;SDS011;24692;45.642;13.806;2023-04-19T09:02:24;3.50;;;2.83;;
36443;SDS011;24692;45.642;13.806;2023-04-19T09:04:50;3.97;;;2.60;;
36443;SDS011;24692;45.642;13.806;2023-04-19T09:07:23;3.67;;;2.67;;
36443;SDS011;24692;45.642;13.806;2023-04-19T09:10:05;2.97;;;2.67;;
36443;SDS011;24692;45.642;13.806;2023-04-19T09:12:32;5.13;;;2.70;;
36443;SDS011;24692;45.642;13.806;2023-04-19T09:14:59;4.25;;;2.40;;
36443;SDS011;24692;45.642;13.806;2023-04-19T09:17:25;7.68;;;3.08;;
36443;SDS011;24692;45.642;13.806;2023-04-19T09:19:50;5.30;;;2.47;;
36443;SDS011;24692;45.642;13.806;2023-04-19T09:22:17;4.38;;;2.65;;
36443;SDS011;24692;45.642;13.806;2023-04-19T09:24:42;4.30;;;2.60;;
36443;SDS011;24692;45.642;13.806;2023-04-19T09:27:08;3.72;;;2.30;;
36443;SDS011;24692;45.642;13.806;2023-04-19T09:29:37;4.85;;;2.60;;
36443;SDS011;24692;45.642;13.806;2023-04-19T09:32:02;2.90;;;2.45;;
36443;SDS011;24692;45.642;13.806;2023-04-19T09:34:28;9.20;;;2.92;;
36443;SDS011;24692;45.642;13.806;2023-04-19T09:36:54;3.85;;;2.53;;
36443;SDS011;24692;45.642;13.806;2023-04-19T09:39:33;4.35;;;2.35;;
36443;SDS011;24692;45.642;13.806;2023-04-19T09:42:00;2.92;;;2.28;;
36443;SDS011;24692;45.642;13.806;2023-04-19T09:44:26;5.57;;;2.38;;
36443;SDS011;24692;45.642;13.806;2023-04-19T09:46:52;2.92;;;2.35;;
36443;SDS011;24692;45.642;13.806;2023-04-19T09:49:22;3.33;;;2.17;;
36443;SDS011;24692;45.642;13.806;2023-04-19T09:51:50;4.32;;;2.30;;
36443;SDS011;24692;45.642;13.806;2023-04-19T09:54:17;3.72;;;2.22;;
36443;SDS011;24692;45.642;13.806;2023-04-19T09:56:44;2.17;;;1.60;;
36443;SDS011;24692;45.642;13.806;2023-04-19T09:59:10;3.13;;;1.75;;
36443;SDS011;24692;45.642;13.806;2023-04-19T10:04:10;3.72;;;2.08;;
36443;SDS011;24692;45.642;13.806;2023-04-19T10:06:40;5.20;;;1.90;;
36443;SDS011;24692;45.642;13.806;2023-04-19T10:09:06;3.90;;;2.22;;
36443;SDS011;24692;45.642;13.806;2023-04-19T10:11:35;3.00;;;2.05;;
36443;SDS011;24692;45.642;13.806;2023-04-19T10:14:06;3.45;;;2.20;;
36443;SDS011;24692;45.642;13.806;2023-04-19T10:16:33;4.40;;;2.15;;
36443;SDS011;24692;45.642;13.806;2023-04-19T10:19:01;2.50;;;2.30;;
36443;SDS011;24692;45.642;13.806;2023-04-19T10:21:32;3.43;;;2.60;;
36443;SDS011;24692;45.642;13.806;2023-04-19T10:23:59;4.83;;;2.30;;
36443;SDS011;24692;45.642;13.806;2023-04-19T10:26:25;3.50;;;2.22;;
36443;SDS011;24692;45.642;13.806;2023-04-19T10:28:52;4.93;;;2.33;;
36443;SDS011;24692;45.642;13.806;2023-04-19T10:31:20;14.07;;;3.33;;
36443;SDS011;24692;45.642;13.806;2023-04-19T10:33:47;2.70;;;2.20;;
36443;SDS011;24692;45.642;13.806;2023-04-19T10:36:14;3.97;;;2.30;;
36443;SDS011;24692;45.642;13.806;2023-04-19T10:38:45;4.43;;;2.50;;
36443;SDS011;24692;45.642;13.806;2023-04-19T10:41:12;5.20;;;2.80;;
36443;SDS011;24692;45.642;13.806;2023-04-19T10:43:42;2.85;;;2.33;;
36443;SDS011;24692;45.642;13.806;2023-04-19T10:46:16;5.03;;;2.40;;
36443;SDS011;24692;45.642;13.806;2023-04-19T10:49:02;4.88;;;2.80;;
36443;SDS011;24692;45.642;13.806;2023-04-19T11:06:59;4.63;;;2.38;;
36443;SDS011;24692;45.642;13.806;2023-04-19T11:12:01;3.58;;;2.20;;
36443;SDS011;24692;45.642;13.806;2023-04-19T11:14:32;3.37;;;2.20;;
36443;SDS011;24692;45.642;13.806;2023-04-19T11:17:12;3.88;;;2.30;;
36443;SDS011;24692;45.642;13.806;2023-04-19T11:19:41;3.05;;;2.00;;
36443;SDS011;24692;45.642;13.806;2023-04-19T11:22:30;2.33;;;2.10;;
36443;SDS011;24692;45.642;13.806;2023-04-19T11:27:36;2.70;;;2.20;;
36443;SDS011;24692;45.642;13.806;2023-04-19T11:30:03;2.85;;;2.00;;
36443;SDS011;24692;45.642;13.806;2023-04-19T11:32:33;3.05;;;2.67;;
36443;SDS011;24692;45.642;13.806;2023-04-19T11:35:03;6.17;;;2.43;;
36443;SDS011;24692;45.642;13.806;2023-04-19T11:37:36;6.13;;;2.58;;
36443;SDS011;24692;45.642;13.806;2023-04-19T11:40:02;3.10;;;2.13;;
36443;SDS011;24692;45.642;13.806;2023-04-19T11:42:30;5.72;;;2.60;;
36443;SDS011;24692;45.642;13.806;2023-04-19T11:44:56;4.13;;;2.20;;
36443;SDS011;24692;45.642;13.806;2023-04-19T11:47:23;3.08;;;1.95;;
36443;SDS011;24692;45.642;13.806;2023-04-19T11:49:50;4.50;;;2.00;;
36443;SDS011;24692;45.642;13.806;2023-04-19T11:52:20;3.80;;;2.20;;
36443;SDS011;24692;45.642;13.806;2023-04-19T11:54:47;4.00;;;2.40;;
36443;SDS011;24692;45.642;13.806;2023-04-19T11:57:13;3.22;;;2.35;;
36443;SDS011;24692;45.642;13.806;2023-04-19T11:59:39;2.83;;;2.40;;
36443;SDS011;24692;45.642;13.806;2023-04-19T12:02:36;4.80;;;2.40;;
36443;SDS011;24692;45.642;13.806;2023-04-19T12:05:06;3.33;;;2.58;;
36443;SDS011;24692;45.642;13.806;2023-04-19T12:07:36;2.50;;;2.30;;
36443;SDS011;24692;45.642;13.806;2023-04-19T12:10:09;2.95;;;2.30;;
36443;SDS011;24692;45.642;13.806;2023-04-19T12:12:36;5.22;;;2.30;;
36443;SDS011;24692;45.642;13.806;2023-04-19T12:15:04;2.97;;;2.33;;
36443;SDS011;24692;45.642;13.806;2023-04-19T12:17:30;2.70;;;2.50;;
36443;SDS011;24692;45.642;13.806;2023-04-19T12:19:56;3.85;;;2.47;;
36443;SDS011;24692;45.642;13.806;2023-04-19T12:22:21;2.95;;;2.63;;
36443;SDS011;24692;45.642;13.806;2023-04-19T12:24:50;16.97;;;3.70;;
36443;SDS011;24692;45.642;13.806;2023-04-19T12:27:17;5.75;;;2.58;;
36443;SDS011;24692;45.642;13.806;2023-04-19T12:29:43;5.55;;;2.80;;
36443;SDS011;24692;45.642;13.806;2023-04-19T12:32:09;4.63;;;2.95;;
36443;SDS011;24692;45.642;13.806;2023-04-19T12:34:35;3.13;;;2.83;;
36443;SDS011;24692;45.642;13.806;2023-04-19T12:37:01;3.35;;;2.72;;
36443;SDS011;24692;45.642;13.806;2023-04-19T12:39:28;4.55;;;2.60;;
36443;SDS011;24692;45.642;13.806;2023-04-19T12:41:54;4.70;;;2.70;;
36443;SDS011;24692;45.642;13.806;2023-04-19T12:44:20;3.42;;;2.70;;
36443;SDS011;24692;45.642;13.806;2023-04-19T12:46:46;4.00;;;2.70;;
36443;SDS011;24692;45.642;13.806;2023-04-19T12:49:12;4.15;;;2.83;;
36443;SDS011;24692;45.642;13.806;2023-04-19T12:51:37;3.30;;;2.83;;
36443;SDS011;24692;45.642;13.806;2023-04-19T12:54:03;3.80;;;3.10;;
36443;SDS011;24692;45.642;13.806;2023-04-19T12:56:31;4.78;;;3.33;;
36443;SDS011;24692;45.642;13.806;2023-04-19T12:58:57;5.25;;;3.30;;
36443;SDS011;24692;45.642;13.806;2023-04-19T13:01:22;4.90;;;3.58;;
36443;SDS011;24692;45.642;13.806;2023-04-19T13:03:48;3.65;;;3.28;;
36443;SDS011;24692;45.642;13.806;2023-04-19T13:06:14;3.85;;;3.47;;
36443;SDS011;24692;45.642;13.806;2023-04-19T13:08:40;5.32;;;4.45;;
36443;SDS011;24692;45.642;13.806;2023-04-19T13:11:06;4.30;;;3.90;;
36443;SDS011;24692;45.642;13.806;2023-04-19T13:13:33;4.65;;;3.70;;
36443;SDS011;24692;45.642;13.806;2023-04-19T13:15:59;5.25;;;3.22;;
36443;SDS011;24692;45.642;13.806;2023-04-19T13:18:24;4.00;;;3.10;;
36443;SDS011;24692;45.642;13.806;2023-04-19T13:20:50;4.37;;;3.10;;
36443;SDS011;24692;45.642;13.806;2023-04-19T13:23:17;3.83;;;3.10;;
36443;SDS011;24692;45.642;13.806;2023-04-19T13:25:43;3.80;;;2.97;;
36443;SDS011;24692;45.642;13.806;2023-04-19T13:28:09;3.23;;;2.83;;
36443;SDS011;24692;45.642;13.806;2023-04-19T13:30:35;3.43;;;2.60;;
36443;SDS011;24692;45.642;13.806;2023-04-19T13:33:00;4.22;;;2.97;;
36443;SDS011;24692;45.642;13.806;2023-04-19T13:35:26;3.75;;;2.95;;
36443;SDS011;24692;45.642;13.806;2023-04-19T13:37:52;3.97;;;3.03;;
36443;SDS011;24692;45.642;13.806;2023-04-19T13:40:17;4.33;;;3.13;;
36443;SDS011;24692;45.642;13.806;2023-04-19T13:42:43;3.43;;;3.13;;
36443;SDS011;24692;45.642;13.806;2023-04-19T13:45:09;3.80;;;2.90;;
36443;SDS011;24692;45.642;13.806;2023-04-19T13:47:35;9.43;;;3.20;;
36443;SDS011;24692;45.642;13.806;2023-04-19T13:50:00;9.03;;;3.50;;
36443;SDS011;24692;45.642;13.806;2023-04-19T13:52:26;5.53;;;2.90;;
36443;SDS011;24692;45.642;13.806;2023-04-19T13:54:51;4.78;;;3.10;;
36443;SDS011;24692;45.642;13.806;2023-04-19T13:57:17;7.73;;;3.30;;
36443;SDS011;24692;45.642;13.806;2023-04-19T13:59:43;7.17;;;3.37;;
36443;SDS011;24692;45.642;13.806;2023-04-19T14:02:08;3.93;;;3.20;;
36443;SDS011;24692;45.642;13.806;2023-04-19T14:04:34;7.73;;;3.80;;
36443;SDS011;24692;45.642;13.806;2023-04-19T14:07:00;4.18;;;2.85;;
36443;SDS011;24692;45.642;13.806;2023-04-19T14:09:25;6.07;;;3.17;;
36443;SDS011;24692;45.642;13.806;2023-04-19T14:11:51;5.15;;;3.00;;
36443;SDS011;24692;45.642;13.806;2023-04-19T14:14:17;3.30;;;3.00;;
36443;SDS011;24692;45.642;13.806;2023-04-19T14:16:43;2.90;;;2.70;;
36443;SDS011;24692;45.642;13.806;2023-04-19T14:19:08;3.10;;;2.80;;
36443;SDS011;24692;45.642;13.806;2023-04-19T14:21:34;3.07;;;2.70;;
36443;SDS011;24692;45.642;13.806;2023-04-19T14:24:00;3.67;;;3.20;;
36443;SDS011;24692;45.642;13.806;2023-04-19T14:26:25;4.03;;;2.90;;
36443;SDS011;24692;45.642;13.806;2023-04-19T14:28:51;3.40;;;2.97;;
36443;SDS011;24692;45.642;13.806;2023-04-19T14:31:17;2.85;;;2.65;;
36443;SDS011;24692;45.642;13.806;2023-04-19T14:33:42;4.10;;;2.83;;
36443;SDS011;24692;45.642;13.806;2023-04-19T14:36:08;4.57;;;3.20;;
36443;SDS011;24692;45.642;13.806;2023-04-19T14:38:34;5.33;;;3.07;;
36443;SDS011;24692;45.642;13.806;2023-04-19T14:41:00;4.93;;;3.03;;
36443;SDS011;24692;45.642;13.806;2023-04-19T14:43:27;3.80;;;2.73;;
36443;SDS011;24692;45.642;13.806;2023-04-19T14:45:53;3.10;;;2.80;;
36443;SDS011;24692;45.642;13.806;2023-04-19T14:48:19;3.30;;;3.00;;
36443;SDS011;24692;45.642;13.806;2023-04-19T14:50:45;3.63;;;3.27;;
36443;SDS011;24692;45.642;13.806;2023-04-19T14:53:10;4.70;;;3.50;;